Izium, Ukraine
Current Conditions -  °F | °C
As of 5:30 AM on Thursday 23 Oct 2014 (Local Time) from UKHH Reporting Station
Overcast Overcast  
Wind Chill: 22°   Ceiling: 1500
Heat Index: 32°   Visibility: 6mi
Dew Point: 25°   Wind: 13mph
Humidity: 75%   Direction: 60°ENE
Pressure: 30.03"   Gusts: NA
Location:  49.18°N, 37.3°E
Report Text: UKHH 230230Z 06006MPS 9999 OVC015 M00/M04 Q1017 070///65 NOSIG
Loading
Personal Weather Stations






























Interactive Weather Map
Tropical Storm Tracking
New forecast layout! Learn more

10-Day Weather Forecast

Advertisements
Track Severe Weather on mobile